Time;durP1;ratioP1;P1;durP2;ratioP2;P2;SDS_P1;SDS_P2;PMS_P1;PMS_P2;Temp;Humidity;BMP_temperature;BMP_pressure;BME280_temperature;BME280_humidity;BME280_pressure;Samples;Min_cycle;Max_cycle;Signal;HPM_P1;HPM_P2
2022/12/22 03:26:13;;;;;;;;;1.67;1.33;;;;;14.24;89.90;14610.53;5023462;28;45865;-85
2022/12/22 03:28:38;;;;;;;;;0.00;0.00;;;;;14.68;90.14;16587.22;5027687;28;45450;-86
2022/12/22 03:31:05;;;;;;;;;1.33;1.00;;;;;14.65;89.68;15987.31;5020779;28;45358;-86
2022/12/22 03:33:31;;;;;;;;;0.67;0.67;;;;;14.62;89.49;16425.06;5020624;28;45397;-86
2022/12/22 03:35:58;;;;;;;;;2.33;1.00;;;;;14.62;89.32;15742.19;5033464;28;45357;-86
2022/12/22 03:38:23;;;;;;;;;0.00;0.00;;;;;14.42;89.46;16429.13;5032909;28;45487;-86
2022/12/22 03:40:49;;;;;;;;;0.00;0.00;;;;;14.60;89.33;17968.66;5024688;28;47354;-86
2022/12/22 03:48:42;;;;;;;;;1.00;0.67;;;;;14.27;88.96;15204.19;5019116;28;45443;-86
2022/12/22 03:51:07;;;;;;;;;1.67;1.00;;;;;14.49;88.70;15336.84;5022031;28;46816;-86
2022/12/22 03:53:33;;;;;;;;;0.00;0.00;;;;;14.22;89.04;18496.66;5007395;28;45491;-86
2022/12/22 03:55:58;;;;;;;;;1.33;0.33;;;;;14.50;89.15;21305.22;5032162;28;45333;-87
2022/12/22 03:58:24;;;;;;;;;2.00;0.00;;;;;14.50;89.16;23372.06;5024477;28;45645;-87
2022/12/22 04:00:49;;;;;;;;;0.67;0.00;;;;;13.87;88.99;19915.25;5027221;28;45463;-87
2022/12/22 04:03:15;;;;;;;;;2.00;0.00;;;;;14.45;88.66;19928.66;5019286;28;45670;-85
2022/12/22 04:05:40;;;;;;;;;1.00;0.00;;;;;14.38;88.92;20648.78;4999529;28;45529;-87
2022/12/22 04:08:05;;;;;;;;;0.00;0.00;;;;;14.03;88.52;20438.31;5009574;28;45527;-87
2022/12/22 04:13:15;;;;;;;;;1.67;0.00;;;;;13.24;88.64;21615.16;5020315;28;45367;-86
2022/12/22 04:15:41;;;;;;;;;4.00;1.00;;;;;13.28;88.56;23966.16;5021313;28;45574;-87
2022/12/22 04:18:06;;;;;;;;;0.00;0.00;;;;;14.25;88.71;23829.38;5012528;28;45853;-85
2022/12/22 04:20:32;;;;;;;;;0.00;0.00;;;;;14.42;88.51;23402.75;5021178;28;45776;-85
2022/12/22 04:22:58;;;;;;;;;0.67;0.00;;;;;14.43;88.94;23448.13;5012491;28;45516;-85
2022/12/22 04:25:25;;;;;;;;;0.00;0.00;;;;;14.45;88.75;24303.66;5026278;28;45486;-85
2022/12/22 04:27:50;;;;;;;;;1.00;0.00;;;;;14.20;88.60;24802.97;5029435;28;45508;-85
2022/12/22 04:30:16;;;;;;;;;0.00;0.00;;;;;14.13;88.30;22076.56;5024975;28;46135;-85
2022/12/22 04:32:42;;;;;;;;;2.00;0.33;;;;;13.87;88.62;21072.97;5025080;28;45510;-85
2022/12/22 04:35:08;;;;;;;;;2.33;0.00;;;;;14.47;87.95;18258.47;5025917;28;45627;-86
2022/12/22 04:37:33;;;;;;;;;0.00;0.00;;;;;14.21;87.94;14916.41;5030895;28;45358;-86
2022/12/22 04:39:59;;;;;;;;;1.00;1.00;;;;;14.31;87.40;13799.34;5021557;28;46560;-86
2022/12/22 04:42:25;;;;;;;;;0.00;0.00;;;;;14.48;87.77;16249.91;5020383;28;45504;-85
2022/12/22 04:44:50;;;;;;;;;3.00;0.00;;;;;14.48;87.95;17058.75;5018196;28;45774;-86
2022/12/22 04:47:16;;;;;;;;;0.00;0.00;;;;;14.44;88.02;18937.75;5018957;28;45519;-86
2022/12/22 04:49:41;;;;;;;;;3.00;1.00;;;;;14.49;87.67;19622.72;5022589;28;45556;-83
2022/12/22 04:52:07;;;;;;;;;0.00;0.00;;;;;14.50;88.28;20303.75;5022041;28;45744;-84
2022/12/22 04:54:32;;;;;;;;;0.00;0.00;;;;;14.49;88.07;20032.66;5019965;28;45419;-85
2022/12/22 04:56:58;;;;;;;;;0.00;0.00;;;;;14.19;88.08;22601.66;5020608;28;45384;-85
2022/12/22 04:59:23;;;;;;;;;3.00;0.00;;;;;14.11;87.88;22325.16;5020148;28;46963;-85
2022/12/22 05:01:49;;;;;;;;;1.00;0.00;;;;;14.52;88.30;22144.75;5025786;28;45474;-86
2022/12/22 05:04:14;;;;;;;;;0.00;0.00;;;;;14.52;87.55;17102.13;5018801;28;45352;-86
2022/12/22 05:06:39;;;;;;;;;0.00;0.00;;;;;14.50;87.88;20374.88;5020724;28;45736;-85
2022/12/22 05:09:05;;;;;;;;;1.00;0.00;;;;;14.48;87.66;16572.84;4987823;28;48413;-86
2022/12/22 05:11:30;;;;;;;;;0.00;0.00;;;;;14.49;87.64;18251.47;5020351;28;45382;-86
2022/12/22 05:13:55;;;;;;;;;0.00;0.00;;;;;14.36;87.26;14923.66;5019521;28;45682;-87
2022/12/22 05:16:21;;;;;;;;;0.00;0.00;;;;;13.49;87.49;17671.53;5019390;28;45791;-88
2022/12/22 05:18:46;;;;;;;;;0.00;0.00;;;;;14.13;87.13;15685.44;5018431;28;46052;-87
2022/12/22 05:21:18;;;;;;;;;0.00;0.00;;;;;14.17;87.08;13902.81;5017279;28;45792;-87
2022/12/22 05:23:44;;;;;;;;;0.00;0.00;;;;;13.93;87.18;13553.13;4999049;28;45562;-87
2022/12/22 05:26:10;;;;;;;;;0.00;0.00;;;;;14.21;86.68;10655.97;5002996;28;45568;-87
2022/12/22 05:28:36;;;;;;;;;1.33;0.00;;;;;14.49;86.62;5527.09;4986654;28;48453;-86
2022/12/22 05:31:04;;;;;;;;;0.00;0.00;;;;;14.36;86.59;5810.72;5002336;28;45327;-87
2022/12/22 05:33:29;;;;;;;;;0.00;0.00;;;;;14.53;86.48;4399.38;5017867;28;45592;-86
2022/12/22 05:35:55;;;;;;;;;0.00;0.00;;;;;14.23;85.82;305.94;5019319;28;45544;-86
2022/12/22 05:38:20;;;;;;;;;0.00;0.00;;;;;14.11;85.78;271.34;5019710;28;46663;-86
2022/12/22 05:40:45;;;;;;;;;0.00;0.00;;;;;14.59;85.88;-1177.13;5003300;28;45561;-86
2022/12/22 05:43:11;;;;;;;;;0.00;0.00;;;;;14.51;85.67;-3761.44;5020533;28;45391;-88
2022/12/22 05:45:36;;;;;;;;;0.00;0.00;;;;;14.57;84.90;-9104.97;5014474;28;45438;-88
2022/12/22 05:48:02;;;;;;;;;0.00;0.00;;;;;14.41;84.89;-8693.97;5003604;28;47625;-87
2022/12/22 05:50:27;;;;;;;;;0.00;0.00;;;;;14.28;84.87;-8445.09;5021205;28;45934;-89
2022/12/22 05:52:53;;;;;;;;;0.00;0.00;;;;;14.60;85.06;-8413.84;5016049;28;45597;-88
2022/12/22 05:55:19;;;;;;;;;1.00;0.00;;;;;14.62;84.67;-11663.75;5024878;28;45465;-86
2022/12/22 05:57:44;;;;;;;;;0.00;0.00;;;;;14.39;84.83;-9058.91;5005476;28;47220;-86
2022/12/22 06:00:14;;;;;;;;;0.00;0.00;;;;;14.63;84.62;-12519.00;5023345;28;47226;-86
2022/12/22 06:02:41;;;;;;;;;0.00;0.00;;;;;14.64;84.19;-13733.53;5018821;28;45674;-87
2022/12/22 06:05:08;;;;;;;;;0.00;0.00;;;;;14.10;84.57;-13310.47;5018618;28;45506;-87
2022/12/22 06:07:33;;;;;;;;;0.00;0.00;;;;;14.65;84.78;-9857.03;5024543;28;46322;-87
2022/12/22 06:09:58;;;;;;;;;0.00;0.00;;;;;14.53;84.59;-13231.53;4980418;28;45460;-86
2022/12/22 06:12:24;;;;;;;;;0.00;0.00;;;;;14.65;84.55;-11095.84;5018097;28;45670;-86
2022/12/22 06:14:50;;;;;;;;;0.00;0.00;;;;;14.64;84.65;-10751.44;5017667;28;45267;-86
2022/12/22 06:17:15;;;;;;;;;0.00;0.00;;;;;13.96;85.27;-4546.34;5020552;28;46273;-87
2022/12/22 06:19:41;;;;;;;;;0.00;0.00;;;;;14.64;85.03;-1861.81;5019072;28;45415;-84
2022/12/22 06:22:06;;;;;;;;;0.00;0.00;;;;;14.55;85.75;3023.00;5021119;28;45513;-87
2022/12/22 06:24:31;;;;;;;;;0.00;0.00;;;;;14.45;86.58;12090.16;5017015;28;45427;-87
2022/12/22 06:26:57;;;;;;;;;0.00;0.00;;;;;12.83;87.66;22978.50;5013962;28;46542;-87
2022/12/22 06:29:22;;;;;;;;;1.00;0.00;;;;;14.53;88.81;32237.34;5003006;28;45379;-87
2022/12/22 06:31:48;;;;;;;;;0.00;0.00;;;;;14.50;89.27;36764.63;5021411;28;45391;-88
2022/12/22 06:34:16;;;;;;;;;1.67;0.00;;;;;14.01;89.87;40730.41;5023629;28;45518;-88
2022/12/22 06:36:45;;;;;;;;;0.00;0.00;;;;;12.87;90.24;43333.78;5019807;28;46724;-86
2022/12/22 06:39:12;;;;;;;;;0.00;0.00;;;;;14.04;90.64;45408.56;5014655;28;45768;-86
2022/12/22 06:44:21;;;;;;;;;0.00;0.00;;;;;13.39;90.82;50599.66;5016728;28;45392;-86
2022/12/22 06:46:47;;;;;;;;;0.00;0.00;;;;;14.28;91.42;52700.34;5015033;28;46289;-86
2022/12/22 06:49:12;;;;;;;;;0.00;0.00;;;;;13.38;92.14;54767.16;5015454;28;45468;-86
2022/12/22 06:51:37;;;;;;;;;0.00;0.00;;;;;14.30;92.14;56083.44;5020291;28;45525;-86
2022/12/22 06:54:03;;;;;;;;;0.00;0.00;;;;;14.31;92.39;57161.06;5020105;28;45458;-86
2022/12/22 06:56:28;;;;;;;;;0.00;0.00;;;;;13.71;92.21;56768.91;5019048;28;45505;-86
2022/12/22 06:58:54;;;;;;;;;0.00;0.00;;;;;14.28;92.20;56442.09;5015260;28;45553;-84
2022/12/22 07:01:19;;;;;;;;;0.00;0.00;;;;;13.84;92.20;56545.47;5015968;28;45767;-86
2022/12/22 07:03:44;;;;;;;;;1.33;0.67;;;;;14.24;92.21;55873.47;5015440;28;45534;-86
2022/12/22 07:06:10;;;;;;;;;0.00;0.00;;;;;14.23;92.26;56376.19;5027041;28;45457;-86
2022/12/22 07:08:36;;;;;;;;;1.67;0.00;;;;;14.21;92.47;55560.88;5022038;28;45606;-86
2022/12/22 07:11:01;;;;;;;;;1.00;1.00;;;;;14.22;92.48;56988.19;5016065;28;45430;-86
2022/12/22 07:13:33;;;;;;;;;1.00;0.00;;;;;14.23;92.33;57280.88;5013499;28;45497;-86
2022/12/22 07:15:59;;;;;;;;;4.00;1.00;;;;;14.15;92.58;56268.56;5013871;28;46117;-86
2022/12/22 07:18:25;;;;;;;;;1.33;1.33;;;;;14.04;92.43;56313.41;5017516;28;45511;-86
2022/12/22 07:20:50;;;;;;;;;0.33;0.33;;;;;14.18;92.64;55756.75;5015259;28;45607;-86
2022/12/22 07:23:16;;;;;;;;;3.67;0.67;;;;;14.21;92.35;54551.09;4999550;28;45573;-86
2022/12/22 07:25:41;;;;;;;;;3.33;1.67;;;;;13.96;92.54;55393.53;4996478;28;45516;-86
2022/12/22 07:28:07;;;;;;;;;4.00;1.33;;;;;14.25;92.66;55503.28;4996090;28;45400;-86
2022/12/22 07:30:35;;;;;;;;;6.33;3.00;;;;;13.82;92.57;54879.88;5000261;28;45505;-85
2022/12/22 07:33:02;;;;;;;;;4.33;2.33;;;;;14.26;92.19;54372.53;5006612;28;45521;-86
2022/12/22 07:35:27;;;;;;;;;2.33;0.00;;;;;14.27;92.11;54069.19;4996557;28;47481;-85
2022/12/22 07:37:53;;;;;;;;;3.33;1.67;;;;;14.30;92.37;54368.84;5015430;28;45499;-85
2022/12/22 07:40:18;;;;;;;;;2.67;2.00;;;;;13.74;91.78;53000.81;5003545;28;45427;-85
2022/12/22 07:42:43;;;;;;;;;9.00;2.00;;;;;14.29;91.58;51662.50;4996782;28;45502;-85
2022/12/22 07:45:19;;;;;;;;;3.33;1.33;;;;;14.19;91.95;50859.13;5002146;28;46879;-85
2022/12/22 07:47:45;;;;;;;;;5.67;1.67;;;;;14.29;91.74;51344.69;4992903;28;45387;-87
2022/12/22 07:50:31;;;;;;;;;6.00;2.00;;;;;13.72;90.96;46110.28;4997205;28;45533;-87
2022/12/22 07:52:58;;;;;;;;;4.33;2.00;;;;;14.25;90.81;46263.25;4998226;28;45535;-87
2022/12/22 07:55:26;;;;;;;;;8.00;5.00;;;;;13.89;90.84;46578.31;4995990;28;47238;-87
2022/12/22 07:57:52;;;;;;;;;5.33;3.33;;;;;14.27;90.89;46262.25;4992751;28;46101;-86
2022/12/22 08:00:18;;;;;;;;;7.33;4.67;;;;;13.93;90.84;45986.88;4994417;28;45403;-86
2022/12/22 08:02:52;;;;;;;;;9.67;5.33;;;;;13.99;90.73;43200.56;5008682;28;45487;-86
2022/12/22 08:05:18;;;;;;;;;6.33;4.67;;;;;14.24;90.08;40303.06;4995106;28;48147;-87
2022/12/22 08:07:43;;;;;;;;;11.00;4.67;;;;;14.24;90.26;41248.88;4992849;28;45510;-87
2022/12/22 08:10:10;;;;;;;;;9.00;3.33;;;;;14.25;90.60;42046.97;4985287;28;45627;-86
2022/12/22 08:12:35;;;;;;;;;12.67;10.00;;;;;13.68;90.03;38776.69;4990983;28;45640;-86
2022/12/22 08:15:01;;;;;;;;;7.00;3.00;;;;;14.26;90.18;39948.03;4993449;28;46243;-86
2022/12/22 08:17:27;;;;;;;;;7.33;2.67;;;;;13.87;89.49;34892.16;4998428;28;45656;-86
2022/12/22 08:19:53;;;;;;;;;11.00;5.33;;;;;14.25;89.58;34839.22;5002364;28;45478;-87
2022/12/22 08:22:22;;;;;;;;;10.67;4.33;;;;;13.91;89.37;33400.59;5003808;28;45423;-86
2022/12/22 08:24:47;;;;;;;;;14.33;5.00;;;;;13.81;88.98;29850.94;4997916;28;47369;-87
2022/12/22 08:27:16;;;;;;;;;4.33;2.33;;;;;14.12;88.94;29109.28;5013864;28;45854;-86
2022/12/22 08:29:48;;;;;;;;;3.33;3.33;;;;;14.17;88.56;27637.59;4994883;28;45871;-86
2022/12/22 08:32:14;;;;;;;;;13.00;4.00;;;;;13.87;88.71;26733.63;4994060;28;45615;-86
2022/12/22 08:34:40;;;;;;;;;7.00;6.33;;;;;14.34;88.66;27035.28;4995647;28;46012;-85
2022/12/22 08:37:11;;;;;;;;;6.67;5.00;;;;;13.60;88.37;24849.38;4997261;28;45443;-85
2022/12/22 08:39:39;;;;;;;;;13.33;6.33;;;;;14.05;88.84;27763.09;4992584;28;45465;-85
2022/12/22 08:42:08;;;;;;;;;10.00;8.33;;;;;13.70;88.25;21119.09;5000158;28;45628;-85
2022/12/22 08:44:37;;;;;;;;;5.33;5.33;;;;;14.39;88.30;23162.13;4996072;28;46442;-85
2022/12/22 08:47:04;;;;;;;;;8.33;4.00;;;;;14.10;87.78;18946.75;4995909;28;45454;-85
2022/12/22 08:49:29;;;;;;;;;14.00;3.67;;;;;14.09;87.96;15631.72;4997021;28;45491;-85
2022/12/22 08:51:55;;;;;;;;;9.33;5.67;;;;;14.45;87.56;16637.66;5003475;28;45712;-86
2022/12/22 08:54:20;;;;;;;;;11.00;7.33;;;;;14.22;87.64;10905.03;5002322;28;45957;-86
2022/12/22 08:56:46;;;;;;;;;13.67;6.33;;;;;14.03;87.26;9656.63;4997033;28;45449;-86
2022/12/22 08:59:12;;;;;;;;;8.00;4.00;;;;;14.38;87.48;9307.31;4996491;28;45501;-87
2022/12/22 09:01:42;;;;;;;;;4.67;3.67;;;;;14.47;87.14;6527.13;4995714;28;45551;-85
2022/12/22 09:04:11;;;;;;;;;8.33;3.33;;;;;14.33;86.88;8688.09;4995748;28;45533;-87
2022/12/22 09:06:36;;;;;;;;;10.33;4.00;;;;;14.19;86.86;4512.94;4995044;28;46240;-86
2022/12/22 09:09:03;;;;;;;;;5.00;3.67;;;;;13.89;86.51;4621.75;4991220;28;45528;-86
2022/12/22 09:11:32;;;;;;;;;6.00;3.00;;;;;14.52;86.88;5365.19;4997239;28;45415;-86
2022/12/22 09:14:00;;;;;;;;;11.00;4.67;;;;;14.53;86.80;4836.50;4999973;28;47055;-86
2022/12/22 09:16:27;;;;;;;;;13.00;6.67;;;;;14.55;86.66;5522.72;5000451;28;45482;-86
2022/12/22 09:18:53;;;;;;;;;13.33;5.67;;;;;13.54;85.92;-5356.25;5001113;28;45390;-86
2022/12/22 09:21:18;;;;;;;;;13.00;4.33;;;;;14.55;85.48;-6393.63;4998150;28;45330;-86
2022/12/22 09:23:44;;;;;;;;;14.33;8.00;;;;;13.87;85.94;-2508.19;5006169;28;45424;-87
2022/12/22 09:26:11;;;;;;;;;10.00;5.33;;;;;14.57;85.94;-3380.09;5016066;28;45605;-85
2022/12/22 09:28:37;;;;;;;;;7.33;5.33;;;;;14.62;85.78;-3176.34;5001922;28;45589;-86
2022/12/22 09:31:03;;;;;;;;;7.67;4.67;;;;;13.88;85.61;-5180.09;5017363;28;45531;-86
2022/12/22 09:33:31;;;;;;;;;11.00;3.33;;;;;14.63;85.52;-7670.41;5011658;28;45773;-86
2022/12/22 09:35:57;;;;;;;;;14.33;5.67;;;;;14.68;85.88;-3526.47;5015179;28;45490;-85
2022/12/22 09:38:26;;;;;;;;;14.33;5.33;;;;;14.62;85.81;-6480.09;4997079;28;45554;-86
2022/12/22 09:40:54;;;;;;;;;9.67;5.33;;;;;14.10;85.72;-6850.38;5010391;28;45491;-86
2022/12/22 09:43:27;;;;;;;;;10.33;4.00;;;;;13.92;84.72;-9810.16;5014175;28;45559;-84
2022/12/22 09:45:53;;;;;;;;;5.67;3.00;;;;;14.73;85.36;-9722.22;4998131;28;45549;-86
2022/12/22 09:48:19;;;;;;;;;6.00;5.67;;;;;14.60;84.90;-11538.41;5000601;28;45395;-86
2022/12/22 09:50:45;;;;;;;;;10.67;7.33;;;;;14.12;85.01;-11560.63;5015224;28;45545;-86
2022/12/22 09:53:21;;;;;;;;;7.00;6.67;;;;;14.48;85.07;-11211.00;5015111;28;45776;-85
2022/12/22 09:55:49;;;;;;;;;7.00;5.33;;;;;14.83;84.81;-14211.16;5020463;28;45970;-85
2022/12/22 09:58:24;;;;;;;;;7.67;5.33;;;;;14.82;84.67;-14883.22;5017719;28;45689;-84
2022/12/22 10:00:58;;;;;;;;;12.33;6.33;;;;;14.46;84.89;-10684.16;5020645;28;45421;-85
2022/12/22 10:03:45;;;;;;;;;7.33;3.00;;;;;14.22;84.65;-13369.69;5021261;28;46499;-85
2022/12/22 10:06:23;;;;;;;;;3.00;1.67;;;;;14.88;84.95;-13414.41;5012759;28;45610;-87
2022/12/22 10:08:48;;;;;;;;;6.00;6.00;;;;;14.42;84.77;-13698.63;4993627;28;46530;-84
2022/12/22 10:11:16;;;;;;;;;6.33;5.33;;;;;14.95;84.78;-11686.53;4996501;28;45461;-84
2022/12/22 10:13:43;;;;;;;;;11.00;7.67;;;;;14.73;84.32;-15194.22;5010713;28;46089;-84
2022/12/22 10:16:27;;;;;;;;;4.00;4.00;;;;;14.69;85.02;-13815.25;4996277;28;45552;-85
2022/12/22 10:19:06;;;;;;;;;7.33;5.67;;;;;14.98;84.77;-14844.56;4990977;28;46725;-87
2022/12/22 10:21:32;;;;;;;;;4.33;4.00;;;;;15.03;84.73;-13959.09;5012792;28;46334;-84
2022/12/22 10:23:57;;;;;;;;;13.00;8.00;;;;;14.85;84.29;-12835.16;5008588;28;46981;-84
2022/12/22 10:26:28;;;;;;;;;10.67;5.00;;;;;15.07;84.61;-15544.72;4997641;28;45454;-84
2022/12/22 10:29:13;;;;;;;;;6.00;4.33;;;;;15.10;84.42;-16173.53;5017973;28;45534;-82
2022/12/22 10:31:58;;;;;;;;;9.33;5.33;;;;;14.95;83.49;-18964.84;5032873;28;46306;-84
2022/12/22 10:34:23;;;;;;;;;11.00;6.33;;;;;14.83;83.90;-18561.00;5021126;28;46115;-83
2022/12/22 10:36:52;;;;;;;;;8.00;3.00;;;;;15.13;83.47;-19614.63;5019710;28;45482;-84
2022/12/22 10:39:24;;;;;;;;;6.33;4.00;;;;;14.81;83.78;-19112.22;5015768;28;45515;-92
2022/12/22 10:41:54;;;;;;;;;6.67;6.67;;;;;15.12;83.95;-19614.34;5012868;28;45546;-86
2022/12/22 10:44:29;;;;;;;;;10.33;5.33;;;;;15.22;83.08;-19616.91;5018396;28;46450;-87
2022/12/22 10:46:57;;;;;;;;;7.33;5.33;;;;;15.24;83.39;-19617.31;5008564;28;45529;-86
2022/12/22 10:49:50;;;;;;;;;8.67;6.00;;;;;15.27;83.01;-19618.25;5007118;28;45470;-85
2022/12/22 10:52:22;;;;;;;;;9.00;3.67;;;;;14.65;82.86;-19601.88;5008305;28;46655;-88
2022/12/22 10:54:48;;;;;;;;;5.33;4.00;;;;;15.32;83.12;-19619.47;5013123;28;45501;-86
2022/12/22 10:57:13;;;;;;;;;7.67;7.00;;;;;15.34;82.88;-19620.00;5014606;28;45466;-88
2022/12/22 10:59:48;;;;;;;;;13.33;6.67;;;;;15.33;82.61;-19619.88;5015918;28;45537;-86
2022/12/22 11:02:29;;;;;;;;;5.67;5.00;;;;;14.71;81.94;-19603.50;5012872;28;45597;-87
2022/12/22 11:05:01;;;;;;;;;7.67;2.67;;;;;15.37;82.57;-19620.81;5013222;28;46743;-87
2022/12/22 11:07:30;;;;;;;;;7.00;5.67;;;;;14.96;82.40;-19610.06;4998308;28;45461;-88
2022/12/22 11:09:55;;;;;;;;;3.00;3.00;;;;;15.14;82.27;-19614.91;4992491;28;45564;-88
2022/12/22 11:12:39;;;;;;;;;6.00;4.00;;;;;15.43;82.19;-19622.28;4977871;28;46476;-86
2022/12/22 11:15:07;;;;;;;;;2.67;0.33;;;;;15.44;81.89;-19622.53;5014196;28;46536;-92
2022/12/22 11:17:51;;;;;;;;;7.33;4.67;;;;;15.43;81.54;-19622.41;5005353;28;45595;-89
2022/12/22 11:20:16;;;;;;;;;10.00;7.00;;;;;15.45;81.93;-19622.81;5023051;28;45418;-93
2022/12/22 11:22:52;;;;;;;;;10.00;5.00;;;;;15.46;81.74;-19623.09;5018029;28;45439;-88
2022/12/22 11:25:26;;;;;;;;;6.00;4.33;;;;;15.47;81.74;-19623.34;5016160;28;46082;-90
2022/12/22 11:28:10;;;;;;;;;7.00;5.33;;;;;15.48;81.62;-19623.75;5016197;28;45291;-87
2022/12/22 11:31:13;;;;;;;;;8.33;5.00;;;;;15.53;81.61;-19625.09;5012213;28;45435;-86
2022/12/22 11:33:54;;;;;;;;;4.33;4.33;;;;;15.54;81.68;-19625.22;5004152;28;45634;-86
2022/12/22 11:36:52;;;;;;;;;10.00;3.33;;;;;15.54;81.66;-19625.22;4997349;28;46682;-87
2022/12/22 11:39:37;;;;;;;;;8.67;5.33;;;;;15.51;81.42;-19624.44;5012132;28;45632;-87
2022/12/22 11:42:05;;;;;;;;;8.00;6.33;;;;;15.48;80.95;-19623.75;5013143;28;45415;-87
2022/12/22 11:44:54;;;;;;;;;9.33;5.33;;;;;15.50;81.33;-19624.28;5020556;28;45698;-89
2022/12/22 11:47:34;;;;;;;;;8.67;6.67;;;;;15.42;80.79;-19622.16;5017678;28;46264;-86
2022/12/22 11:50:28;;;;;;;;;6.67;2.33;;;;;15.50;81.02;-19624.28;4997655;28;46177;-85
2022/12/22 11:53:14;;;;;;;;;8.00;5.00;;;;;15.51;80.62;-19624.56;5018019;28;45549;-87
2022/12/22 11:55:58;;;;;;;;;13.00;6.33;;;;;15.27;80.71;-19618.25;5016365;28;45474;-86
2022/12/22 11:59:09;;;;;;;;;13.00;5.67;;;;;15.46;80.78;-19623.22;5013742;28;45735;-87
2022/12/22 12:01:59;;;;;;;;;8.00;4.00;;;;;15.56;80.65;-19625.91;4932934;28;45581;-87
2022/12/22 12:04:30;;;;;;;;;9.00;4.00;;;;;15.59;80.49;-19626.72;4902424;28;45702;-88
2022/12/22 12:07:13;;;;;;;;;5.00;3.00;;;;;15.60;80.25;-19626.97;4900206;29;45784;-86
2022/12/22 12:09:46;;;;;;;;;6.00;4.33;;;;;15.62;80.25;-19627.38;4909826;28;46103;-85
2022/12/22 12:12:17;;;;;;;;;5.33;3.33;;;;;14.77;80.58;-19605.25;4915834;28;45694;-88
2022/12/22 12:15:06;;;;;;;;;7.00;5.00;;;;;15.20;80.15;-19616.50;4898157;28;45664;-89
2022/12/22 12:17:51;;;;;;;;;2.67;2.67;;;;;15.60;80.63;-19626.84;4913495;28;45525;-86
2022/12/22 12:20:17;;;;;;;;;7.33;4.33;;;;;15.63;80.46;-19627.63;4915116;28;46320;-87
2022/12/22 12:22:57;;;;;;;;;4.33;3.33;;;;;15.63;80.12;-19627.78;4917250;28;45600;-88
2022/12/22 12:25:37;;;;;;;;;7.67;4.33;;;;;15.63;80.30;-19627.63;4915961;28;45550;-87
2022/12/22 12:28:18;;;;;;;;;4.33;3.67;;;;;15.66;80.32;-19628.44;4911555;28;45432;-87
2022/12/22 12:30:52;;;;;;;;;6.33;6.33;;;;;15.55;80.36;-19625.50;4909142;28;46406;-87
2022/12/22 12:33:24;;;;;;;;;8.00;4.00;;;;;15.66;80.06;-19628.44;4911718;28;45379;-88
2022/12/22 12:35:55;;;;;;;;;5.33;4.33;;;;;15.64;80.12;-19627.91;4906109;28;45517;-86
2022/12/22 12:38:52;;;;;;;;;5.00;4.00;;;;;15.62;80.36;-19627.50;4959462;28;45436;-89
2022/12/22 12:41:36;;;;;;;;;7.33;5.00;;;;;15.54;80.25;-19625.22;4995361;28;46705;-88
2022/12/22 12:44:03;;;;;;;;;3.00;3.00;;;;;13.83;79.86;-19580.38;4995778;28;45427;-92
2022/12/22 12:46:51;;;;;;;;;8.00;3.67;;;;;15.57;80.34;-19626.03;4995024;28;45558;-92
2022/12/22 12:49:35;;;;;;;;;4.33;3.67;;;;;15.58;80.52;-19626.31;4997568;28;45370;-91
2022/12/22 12:52:08;;;;;;;;;7.67;6.00;;;;;15.27;80.21;-19618.13;4996539;28;46369;-89
2022/12/22 12:54:39;;;;;;;;;9.00;6.33;;;;;14.87;80.48;-19607.78;4995515;28;45411;-89
2022/12/22 12:57:25;;;;;;;;;4.00;4.00;;;;;15.55;81.17;-19625.50;4996886;28;45486;-88
2022/12/22 12:59:53;;;;;;;;;9.67;6.00;;;;;15.56;81.33;-19625.91;4998541;28;45661;-89
2022/12/22 13:02:28;;;;;;;;;11.00;3.67;;;;;15.56;82.39;-19625.75;4996826;28;46098;-88
2022/12/22 13:05:02;;;;;;;;;7.33;5.00;;;;;15.55;83.05;-19625.63;4991659;28;45404;-87
2022/12/22 13:08:05;;;;;;;;;10.67;6.33;;;;;15.52;83.16;-19624.69;4998415;28;45340;-87
2022/12/22 13:10:34;;;;;;;;;8.00;5.67;;;;;14.92;83.76;-18813.09;4998161;28;45419;-87
2022/12/22 13:13:00;;;;;;;;;7.00;5.00;;;;;15.40;84.29;-15885.16;4997668;28;46360;-87
2022/12/22 13:15:37;;;;;;;;;5.00;4.00;;;;;15.39;85.54;-8804.53;4995822;28;45410;-87
2022/12/22 13:18:27;;;;;;;;;11.67;5.00;;;;;14.90;85.02;-11174.66;4998513;28;45371;-87
2022/12/22 13:21:21;;;;;;;;;5.33;3.67;;;;;14.53;85.38;-7667.09;4997757;28;45437;-88
2022/12/22 13:24:03;;;;;;;;;2.33;1.00;;;;;15.27;86.25;26.44;5003575;28;45548;-89
2022/12/22 13:26:36;;;;;;;;;9.33;5.00;;;;;14.90;86.76;398.63;5015997;28;45537;-87
2022/12/22 13:29:14;;;;;;;;;7.00;6.00;;;;;15.20;86.80;5178.03;5012369;28;45549;-89
2022/12/22 13:31:43;;;;;;;;;9.67;5.00;;;;;15.20;87.13;6753.47;5019765;28;45622;-88
2022/12/22 13:34:21;;;;;;;;;7.33;4.67;;;;;15.15;87.40;12448.81;4993603;28;46866;-86
2022/12/22 13:36:48;;;;;;;;;7.33;6.33;;;;;14.73;88.08;16930.31;5014827;28;45454;-86
2022/12/22 13:39:14;;;;;;;;;8.33;6.00;;;;;14.23;88.45;21302.63;5016130;28;45464;-91
2022/12/22 13:41:43;;;;;;;;;7.00;3.00;;;;;14.95;88.23;20767.88;4996329;28;45565;-86
2022/12/22 13:44:22;;;;;;;;;5.33;4.00;;;;;14.87;88.51;22030.22;5012874;28;45587;-86
2022/12/22 13:46:47;;;;;;;;;8.00;5.00;;;;;14.84;89.44;29589.06;5013260;28;45534;-86
2022/12/22 13:49:16;;;;;;;;;4.67;4.00;;;;;14.67;89.50;28905.88;5013330;28;45673;-87
2022/12/22 13:51:42;;;;;;;;;5.33;3.33;;;;;14.70;89.33;27661.13;5018057;28;45638;-86
2022/12/22 13:54:07;;;;;;;;;5.33;3.00;;;;;14.96;89.94;33182.69;5016283;28;45936;-89
2022/12/22 13:56:38;;;;;;;;;8.00;4.00;;;;;14.18;90.07;33031.75;4996091;28;46394;-89
2022/12/22 13:59:15;;;;;;;;;11.33;6.67;;;;;14.36;90.55;34982.94;5013428;28;45446;-86
2022/12/22 14:01:55;;;;;;;;;5.67;4.00;;;;;14.86;90.98;37944.88;4997717;28;45639;-87
2022/12/22 14:04:21;;;;;;;;;12.67;6.33;;;;;14.80;90.67;35930.91;5012367;28;45515;-85
2022/12/22 14:06:46;;;;;;;;;6.67;5.00;;;;;14.74;91.02;38351.41;5007362;28;45651;-86
2022/12/22 14:09:14;;;;;;;;;7.33;4.00;;;;;14.70;91.79;42452.59;5016567;28;45431;-85
2022/12/22 14:11:41;;;;;;;;;11.00;3.00;;;;;13.88;91.44;41867.38;5007805;28;45437;-89
2022/12/22 14:14:09;;;;;;;;;9.00;5.33;;;;;14.64;92.21;44217.50;5008646;28;45525;-85
2022/12/22 14:16:42;;;;;;;;;5.67;4.00;;;;;14.56;92.87;47881.38;5010422;28;45415;-85
2022/12/22 14:19:12;;;;;;;;;7.00;7.00;;;;;13.87;92.52;47250.34;5012327;28;45446;-87
2022/12/22 14:21:39;;;;;;;;;7.00;2.33;;;;;13.59;93.72;52627.47;4993334;28;45737;-85
2022/12/22 14:24:08;;;;;;;;;5.33;5.33;;;;;14.23;94.26;54465.06;5013250;28;45989;-86
2022/12/22 14:26:34;;;;;;;;;6.33;3.00;;;;;13.90;93.94;54344.53;5009061;28;47232;-86
2022/12/22 14:29:00;;;;;;;;;5.67;3.00;;;;;14.46;94.72;57276.81;5010668;28;45524;-85
2022/12/22 14:31:25;;;;;;;;;12.33;5.00;;;;;14.29;94.66;57814.19;5015007;28;45497;-84
2022/12/22 14:34:02;;;;;;;;;9.67;4.00;;;;;14.42;95.26;59469.38;5001180;28;48340;-86
2022/12/22 14:36:35;;;;;;;;;2.00;2.00;;;;;14.40;95.89;61827.44;4995101;28;45563;-90
2022/12/22 14:39:08;;;;;;;;;3.00;3.00;;;;;14.38;97.00;65997.28;4998270;28;46877;-85
2022/12/22 14:41:55;;;;;;;;;2.00;2.00;;;;;14.18;97.40;68189.28;4997703;28;45779;-87
2022/12/22 14:44:43;;;;;;;;;5.33;3.00;;;;;14.34;97.78;69343.44;5012243;28;45947;-86
2022/12/22 14:47:16;;;;;;;;;6.00;3.00;;;;;14.33;97.29;66305.81;4995992;28;46083;-87
2022/12/22 14:49:59;;;;;;;;;4.00;3.00;;;;;14.06;97.36;66562.34;5013206;28;45566;-86
2022/12/22 14:52:50;;;;;;;;;6.33;3.00;;;;;14.33;97.34;66321.19;4995017;28;45576;-86
2022/12/22 14:55:35;;;;;;;;;2.33;2.33;;;;;14.05;97.62;68118.69;5013580;28;46060;-85
2022/12/22 14:58:09;;;;;;;;;7.67;5.33;;;;;14.13;97.28;66282.81;5015048;28;45381;-86
2022/12/22 15:00:40;;;;;;;;;7.33;2.00;;;;;14.40;97.70;67057.19;4992447;28;45525;-86
2022/12/22 15:03:31;;;;;;;;;8.67;4.33;;;;;14.39;97.53;66463.09;5015550;28;45601;-85
2022/12/22 15:06:30;;;;;;;;;6.33;3.00;;;;;14.41;97.84;67076.97;5008746;28;45459;-85
2022/12/22 15:09:05;;;;;;;;;2.00;2.00;;;;;14.41;97.71;66396.28;5013015;28;45590;-85
2022/12/22 15:11:32;;;;;;;;;4.67;3.00;;;;;14.40;97.72;66629.09;4997619;28;45427;-85
2022/12/22 15:13:59;;;;;;;;;7.33;4.00;;;;;14.39;98.44;69139.25;5010180;28;45439;-86
2022/12/22 15:16:25;;;;;;;;;3.00;1.67;;;;;14.38;98.29;68975.78;5011907;28;46433;-85
2022/12/22 15:18:51;;;;;;;;;4.00;2.33;;;;;13.78;98.40;69944.63;5009767;28;45411;-85
2022/12/22 15:21:19;;;;;;;;;8.33;2.33;;;;;14.39;98.74;70056.63;5014985;28;45400;-85